createdAt,value
2024-04-25T00:01:50.949Z,92.78
2024-04-25T00:04:17.882Z,94.18
2024-04-25T00:06:44.693Z,93.54
2024-04-25T00:09:11.427Z,93.04
2024-04-25T00:11:38.401Z,93.87
2024-04-25T00:14:05.202Z,93.97
2024-04-25T00:16:32.007Z,93.92
2024-04-25T00:18:58.979Z,93.94
2024-04-25T00:21:25.747Z,94.28
2024-04-25T00:23:52.535Z,93.71
2024-04-25T00:26:19.291Z,94.08
2024-04-25T00:28:46.142Z,94.20
2024-04-25T00:31:12.915Z,93.75
2024-04-25T00:33:39.781Z,93.28
2024-04-25T00:36:07.970Z,94.13
2024-04-25T00:38:34.774Z,94.22
2024-04-25T00:41:01.593Z,94.40
2024-04-25T00:43:32.577Z,94.43
2024-04-25T00:46:02.868Z,95.38
2024-04-25T00:48:30.478Z,94.40
2024-04-25T00:50:59.747Z,94.53
2024-04-25T00:53:27.644Z,95.11
2024-04-25T00:55:57.616Z,94.58
2024-04-25T00:58:28.653Z,95.40
2024-04-25T01:00:57.633Z,94.69
2024-04-25T01:03:25.261Z,94.66
2024-04-25T01:05:52.781Z,95.10
2024-04-25T01:08:19.619Z,95.42
2024-04-25T01:10:46.805Z,94.52
2024-04-25T01:13:13.756Z,94.81
2024-04-25T01:15:40.654Z,94.38
2024-04-25T01:18:07.552Z,94.19
2024-04-25T01:20:34.454Z,94.19
2024-04-25T01:23:04.054Z,93.30
2024-04-25T01:25:31.481Z,93.31
2024-04-25T01:27:58.373Z,92.81
2024-04-25T01:30:25.730Z,93.24
2024-04-25T01:32:52.808Z,92.83
2024-04-25T01:35:21.419Z,93.34
2024-04-25T01:37:49.720Z,92.70
2024-04-25T01:40:16.671Z,92.48
2024-04-25T01:42:43.403Z,92.66
2024-04-25T01:45:12.586Z,93.06
2024-04-25T01:47:39.439Z,92.44
2024-04-25T01:50:07.036Z,92.75
2024-04-25T01:52:33.768Z,92.71
2024-04-25T01:55:00.644Z,93.34
2024-04-25T01:57:27.402Z,93.19
2024-04-25T01:59:54.230Z,93.39
2024-04-25T02:02:21.065Z,93.31
2024-04-25T02:04:47.944Z,93.11
2024-04-25T02:07:14.695Z,93.52
2024-04-25T02:09:41.444Z,93.28
2024-04-25T02:12:11.066Z,92.96
2024-04-25T02:14:38.035Z,93.25
2024-04-25T02:17:07.035Z,93.53
2024-04-25T02:19:33.811Z,93.54
2024-04-25T02:22:00.562Z,94.44
2024-04-25T02:24:27.433Z,93.20
2024-04-25T02:26:54.229Z,94.24
2024-04-25T02:29:20.970Z,94.80
2024-04-25T02:31:47.815Z,94.33
2024-04-25T02:34:14.658Z,93.86
2024-04-25T02:36:41.478Z,94.09
2024-04-25T02:39:08.250Z,94.69
2024-04-25T02:41:35.078Z,95.12
2024-04-25T02:44:01.937Z,94.82
2024-04-25T02:46:28.704Z,94.68
2024-04-25T02:48:55.602Z,94.84
2024-04-25T02:51:22.573Z,95.08
2024-04-25T02:53:49.497Z,94.69
2024-04-25T02:56:16.470Z,94.72
2024-04-25T02:58:44.510Z,95.33
2024-04-25T03:01:11.492Z,95.21
2024-04-25T03:03:38.421Z,95.47
2024-04-25T03:06:05.541Z,95.23
2024-04-25T03:08:32.343Z,95.51
2024-04-25T03:11:03.763Z,95.49
2024-04-25T03:13:30.511Z,96.03
2024-04-25T03:15:57.343Z,94.80
2024-04-25T03:18:24.192Z,95.50
2024-04-25T03:20:51.020Z,95.18
2024-04-25T03:23:17.949Z,95.22
2024-04-25T03:25:44.855Z,95.40
2024-04-25T03:28:11.602Z,95.48
2024-04-25T03:30:38.363Z,95.17
2024-04-25T03:33:05.507Z,96.12
2024-04-25T03:35:32.324Z,95.37
2024-04-25T03:38:00.709Z,94.80
2024-04-25T03:40:29.434Z,95.37
2024-04-25T03:42:56.143Z,95.45
2024-04-25T03:45:23.052Z,94.98
2024-04-25T03:47:49.957Z,95.80
2024-04-25T03:50:16.808Z,95.29
2024-04-25T03:52:43.719Z,95.03
2024-04-25T03:55:10.540Z,95.30
2024-04-25T03:57:37.284Z,95.23
2024-04-25T04:00:05.238Z,94.87
2024-04-25T04:02:32.234Z,95.67
2024-04-25T04:04:58.984Z,95.12
2024-04-25T04:07:25.764Z,95.07
2024-04-25T04:09:52.508Z,94.96
2024-04-25T04:12:19.379Z,94.83
2024-04-25T04:14:46.240Z,94.29
2024-04-25T04:17:13.345Z,94.68
2024-04-25T04:19:40.161Z,94.02
2024-04-25T04:22:06.981Z,94.06
2024-04-25T04:24:33.793Z,93.82
2024-04-25T04:27:00.659Z,94.12
2024-04-25T04:29:28.147Z,94.26
2024-04-25T04:31:55.100Z,94.12
2024-04-25T04:34:21.987Z,93.68
2024-04-25T04:36:48.938Z,93.60
2024-04-25T04:39:15.778Z,93.13
2024-04-25T04:41:45.457Z,93.28
2024-04-25T04:44:12.360Z,93.50
2024-04-25T04:46:39.234Z,93.16
2024-04-25T04:49:06.131Z,93.30
2024-04-25T04:51:32.917Z,93.28
2024-04-25T04:53:59.663Z,92.96
2024-04-25T04:56:26.654Z,92.86
2024-04-25T04:58:54.990Z,92.79
2024-04-25T05:01:21.783Z,92.10
2024-04-25T05:03:48.646Z,92.41
2024-04-25T05:06:15.390Z,92.01
2024-04-25T05:08:42.177Z,91.18
2024-04-25T05:11:09.494Z,90.52
2024-04-25T05:13:36.248Z,91.07
2024-04-25T05:16:03.305Z,90.16
2024-04-25T05:18:30.216Z,89.95
2024-04-25T05:20:57.103Z,90.39
2024-04-25T05:23:24.062Z,89.51
2024-04-25T05:25:50.793Z,89.06
2024-04-25T05:28:17.761Z,89.29
2024-04-25T14:26:20.118Z,58.99
2024-04-25T14:28:48.926Z,57.68
2024-04-25T14:31:16.583Z,57.18
2024-04-25T14:33:43.564Z,58.71
2024-04-25T14:36:10.541Z,58.01
2024-04-25T14:38:37.395Z,56.91
2024-04-25T14:41:07.223Z,56.09
2024-04-25T14:43:35.841Z,55.40
2024-04-25T14:46:02.732Z,56.42
2024-04-25T14:48:32.419Z,57.48
2024-04-25T14:50:59.846Z,56.58
2024-04-25T14:53:27.894Z,57.22
2024-04-25T14:55:54.772Z,57.01
2024-04-25T14:58:21.905Z,56.45
2024-04-25T15:00:48.727Z,57.07
2024-04-25T15:03:15.578Z,55.98
2024-04-25T15:05:45.266Z,57.94
2024-04-25T15:08:12.258Z,56.88
2024-04-25T15:10:39.052Z,57.71
2024-04-25T15:13:12.165Z,58.11
2024-04-25T15:15:38.925Z,58.39
2024-04-25T15:18:06.241Z,57.28
2024-04-25T15:20:33.040Z,57.75
2024-04-25T15:23:00.724Z,57.47
2024-04-25T15:25:28.038Z,57.39
2024-04-25T15:27:56.061Z,57.32
2024-04-25T15:30:22.911Z,55.92
2024-04-25T15:32:49.831Z,56.85
2024-04-25T15:35:16.748Z,57.05
2024-04-25T15:37:44.030Z,55.87
2024-04-25T15:40:10.932Z,55.65
2024-04-25T15:42:37.923Z,55.51
2024-04-25T15:45:05.061Z,54.32
2024-04-25T15:47:32.238Z,53.17
2024-04-25T15:49:59.395Z,54.06
2024-04-25T15:52:26.161Z,54.00
2024-04-25T15:54:53.010Z,54.15
2024-04-25T15:57:19.851Z,54.63
2024-04-25T15:59:49.819Z,54.65
2024-04-25T16:02:19.031Z,55.20
2024-04-25T16:04:49.363Z,54.50
2024-04-25T16:07:18.232Z,53.50
2024-04-25T16:09:45.614Z,55.50
2024-04-25T16:12:12.668Z,54.33
2024-04-25T16:14:42.402Z,53.47
2024-04-25T16:17:12.632Z,54.67
2024-04-25T16:19:39.456Z,54.44
2024-04-25T16:22:06.364Z,54.04
2024-04-25T16:24:33.149Z,55.26
2024-04-25T16:27:00.051Z,54.95
2024-04-25T16:29:26.874Z,54.63
2024-04-25T16:31:53.918Z,54.98
2024-04-25T16:34:20.854Z,54.30
2024-04-25T16:36:47.787Z,54.61
2024-04-25T16:39:14.721Z,53.99
2024-04-25T16:41:41.525Z,54.62
2024-04-25T16:44:08.555Z,54.90
2024-04-25T16:46:38.368Z,54.80
2024-04-25T16:49:05.246Z,55.73
2024-04-25T16:51:32.288Z,56.34
2024-04-25T16:53:59.320Z,56.12
2024-04-25T16:56:26.253Z,56.18
2024-04-25T16:58:56.208Z,57.36
2024-04-25T17:01:25.951Z,57.67
2024-04-25T17:03:52.890Z,57.71
2024-04-25T17:06:19.892Z,58.15
2024-04-25T17:08:46.836Z,58.57
2024-04-25T17:11:20.699Z,58.63
2024-04-25T17:13:47.634Z,59.06
2024-04-25T17:16:16.066Z,59.32
2024-04-25T17:18:45.932Z,59.60
2024-04-25T17:21:12.707Z,60.13
2024-04-25T17:23:39.652Z,61.36
2024-04-25T17:26:07.999Z,61.54
2024-04-25T17:28:37.414Z,62.13
2024-04-25T17:31:04.410Z,62.62
2024-04-25T17:33:31.770Z,63.00
2024-04-25T17:35:58.744Z,64.41
2024-04-25T17:38:25.755Z,64.94
2024-04-25T17:40:54.172Z,64.72
2024-04-25T17:43:20.939Z,65.82
2024-04-25T17:45:47.700Z,66.06
2024-04-25T17:48:14.703Z,66.26
2024-04-25T17:50:44.898Z,66.38
2024-04-25T17:53:11.795Z,67.30
2024-04-25T17:55:38.923Z,67.99
2024-04-25T17:58:05.888Z,67.58
2024-04-25T18:00:32.703Z,68.71
2024-04-25T18:02:59.451Z,69.48
2024-04-25T18:05:26.204Z,69.70
2024-04-25T18:07:53.014Z,70.51
2024-04-25T18:10:19.779Z,71.41
2024-04-25T18:12:46.715Z,70.52
2024-04-25T18:15:15.614Z,71.53
2024-04-25T18:17:42.490Z,71.92
2024-04-25T18:20:10.103Z,72.09
2024-04-25T18:22:39.714Z,72.45
2024-04-25T18:25:06.851Z,72.42
2024-04-25T18:27:33.714Z,72.04
2024-04-25T18:30:00.629Z,73.44
2024-04-25T18:32:27.842Z,73.14
2024-04-25T18:34:54.630Z,74.78
2024-04-25T18:37:21.439Z,74.33
2024-04-25T18:39:48.227Z,74.18
2024-04-25T18:42:15.274Z,74.49
2024-04-25T18:44:42.174Z,75.27
2024-04-25T18:47:08.921Z,74.82
2024-04-25T18:49:35.742Z,75.04
2024-04-25T18:52:02.543Z,75.58
2024-04-25T18:54:29.362Z,75.12
2024-04-25T18:56:56.325Z,75.44
2024-04-25T18:59:23.344Z,75.73
2024-04-25T19:01:50.328Z,75.07
2024-04-25T19:04:17.114Z,75.46
2024-04-25T19:06:43.923Z,74.27
2024-04-25T19:09:10.690Z,75.26
2024-04-25T19:11:40.304Z,75.73
2024-04-25T19:14:09.975Z,74.42
2024-04-25T19:16:36.826Z,75.44
2024-04-25T19:19:03.830Z,75.34
2024-04-25T19:21:38.879Z,74.99
2024-04-25T19:24:12.828Z,75.98
2024-04-25T19:26:43.525Z,75.90
2024-04-25T19:29:14.079Z,75.96
2024-04-25T19:31:45.056Z,75.65
2024-04-25T19:34:19.425Z,74.84
2024-04-25T19:36:48.713Z,75.24
2024-04-25T19:39:16.141Z,74.71
2024-04-25T19:41:46.350Z,74.94
2024-04-25T19:44:13.463Z,74.16
2024-04-25T19:46:40.184Z,74.78
2024-04-25T19:49:07.151Z,76.05
2024-04-25T19:51:34.325Z,76.22
2024-04-25T19:54:01.294Z,77.88
2024-04-25T19:56:28.082Z,79.09
2024-04-25T19:58:54.890Z,78.21
2024-04-25T20:01:21.669Z,78.06
2024-04-25T20:03:51.324Z,78.04
2024-04-25T20:06:18.114Z,77.86
2024-04-25T20:08:44.863Z,78.10
2024-04-25T20:11:14.462Z,79.05
2024-04-25T20:13:42.262Z,79.67
2024-04-25T20:16:18.617Z,79.99
2024-04-25T20:18:45.705Z,79.86
2024-04-25T20:21:13.455Z,80.79
2024-04-25T20:23:43.988Z,81.61
2024-04-25T20:26:13.991Z,80.98
2024-04-25T20:28:41.827Z,80.05
2024-04-25T20:31:14.322Z,79.56
2024-04-25T20:33:41.175Z,79.75
2024-04-25T20:36:11.026Z,81.38
2024-04-25T20:38:38.276Z,81.64
2024-04-25T20:41:07.797Z,81.42
2024-04-25T20:43:40.899Z,81.54
2024-04-25T20:46:10.590Z,82.08
2024-04-25T20:48:37.458Z,81.87
2024-04-25T20:51:04.369Z,82.32
2024-04-25T20:53:31.381Z,82.52
2024-04-25T20:55:58.348Z,81.92
2024-04-25T20:58:28.346Z,81.97
2024-04-25T21:00:56.636Z,81.53
2024-04-25T21:03:26.625Z,82.01
2024-04-25T21:05:53.527Z,82.13
2024-04-25T21:08:23.371Z,82.45
2024-04-25T21:10:50.363Z,82.27
2024-04-25T21:13:17.230Z,83.42
2024-04-25T21:15:47.063Z,82.72
2024-04-25T21:18:16.609Z,82.07
2024-04-25T21:20:43.671Z,81.98
2024-04-25T21:23:10.638Z,82.26
2024-04-25T21:25:47.931Z,82.59
2024-04-25T21:28:18.465Z,82.36
2024-04-25T21:30:45.483Z,82.31
2024-04-25T21:33:12.403Z,83.57
2024-04-25T21:35:39.551Z,84.73
2024-04-25T21:38:06.473Z,86.21
2024-04-25T21:40:33.279Z,85.85
2024-04-25T21:43:02.837Z,85.77
2024-04-25T21:45:29.611Z,84.58
2024-04-25T21:47:56.744Z,84.52
2024-04-25T21:50:23.689Z,85.89
2024-04-25T21:52:50.470Z,85.51
2024-04-25T21:55:17.234Z,85.05
2024-04-25T21:57:44.317Z,83.82
2024-04-25T22:00:11.478Z,84.15
2024-04-25T22:02:38.364Z,84.39
2024-04-25T22:05:05.641Z,84.30
2024-04-25T22:07:35.264Z,85.34
2024-04-25T22:10:02.442Z,85.65
2024-04-25T22:12:29.711Z,86.86
2024-04-25T22:14:56.882Z,86.66
2024-04-25T22:17:24.044Z,86.22
2024-04-25T22:19:51.157Z,85.65
2024-04-25T22:22:17.995Z,86.45
2024-04-25T22:24:47.223Z,85.62
2024-04-25T22:27:15.351Z,86.34
2024-04-25T22:29:43.266Z,86.13
2024-04-25T22:32:10.149Z,86.56
2024-04-25T22:34:37.394Z,86.28
2024-04-25T22:37:07.097Z,87.22
2024-04-25T22:39:36.222Z,87.55
2024-04-25T22:42:03.088Z,87.84
2024-04-25T22:44:29.934Z,88.78
2024-04-25T22:46:56.779Z,88.48
2024-04-25T22:49:23.772Z,87.66
2024-04-25T22:51:50.798Z,88.98
2024-04-25T22:54:17.698Z,89.43
2024-04-25T22:56:44.537Z,89.03
2024-04-25T22:59:11.522Z,88.88
2024-04-25T23:01:38.296Z,88.59
2024-04-25T23:04:05.188Z,89.63
2024-04-25T23:06:32.021Z,89.78
2024-04-25T23:08:59.268Z,89.34
2024-04-25T23:11:26.147Z,89.70
2024-04-25T23:13:53.338Z,90.75
2024-04-25T23:16:20.215Z,90.32
2024-04-25T23:18:47.059Z,90.81
2024-04-25T23:21:13.895Z,89.62
2024-04-25T23:23:40.814Z,89.07
2024-04-25T23:26:07.849Z,89.44
2024-04-25T23:28:34.734Z,89.41
2024-04-25T23:31:01.551Z,88.57
2024-04-25T23:33:28.720Z,88.57
2024-04-25T23:35:56.038Z,88.95
2024-04-25T23:38:22.918Z,89.29
2024-04-25T23:40:49.760Z,89.84
2024-04-25T23:43:16.552Z,90.33
2024-04-25T23:45:43.545Z,90.16
2024-04-25T23:48:10.507Z,89.31
2024-04-25T23:50:37.467Z,90.55
2024-04-25T23:53:04.406Z,90.13
2024-04-25T23:55:31.184Z,91.40
2024-04-25T23:57:58.178Z,91.58
